createdAt,value
2018-07-19T00:01:56.551Z,1.33
2018-07-19T00:04:27.011Z,1.57
2018-07-19T00:06:57.929Z,1.20
2018-07-19T00:09:28.256Z,1.10
2018-07-19T00:11:58.933Z,1.20
2018-07-19T00:14:29.490Z,1.40
2018-07-19T00:17:00.058Z,1.43
2018-07-19T00:19:30.722Z,1.60
2018-07-19T00:22:01.299Z,1.40
2018-07-19T00:24:31.817Z,1.60
2018-07-19T00:27:02.413Z,1.50
2018-07-19T00:29:32.958Z,1.20
2018-07-19T00:32:03.398Z,1.67
2018-07-19T00:34:34.006Z,1.80
2018-07-19T00:37:04.447Z,1.20
2018-07-19T00:39:35.180Z,1.43
2018-07-19T00:42:06.034Z,1.57
2018-07-19T00:44:36.637Z,1.90
2018-07-19T00:47:07.219Z,1.27
2018-07-19T00:49:37.909Z,1.60
2018-07-19T00:52:08.597Z,1.80
2018-07-19T00:54:39.217Z,1.40
2018-07-19T00:57:10.014Z,1.50
2018-07-19T00:59:40.724Z,1.30
2018-07-19T01:02:11.249Z,1.33
2018-07-19T01:04:41.905Z,1.20
2018-07-19T01:07:12.852Z,1.57
2018-07-19T01:09:43.597Z,1.73
2018-07-19T01:12:14.311Z,1.60
2018-07-19T01:14:44.886Z,2.50
2018-07-19T01:17:15.365Z,1.60
2018-07-19T01:19:45.999Z,1.83
2018-07-19T01:22:15.965Z,1.77
2018-07-19T01:24:46.358Z,1.60
2018-07-19T01:27:17.128Z,1.43
2018-07-19T01:29:47.696Z,1.27
2018-07-19T01:32:18.130Z,1.60
2018-07-19T01:34:48.743Z,1.80
2018-07-19T01:37:19.384Z,1.30
2018-07-19T01:39:50.019Z,1.67
2018-07-19T01:42:30.864Z,1.50
2018-07-19T01:45:01.451Z,1.37
2018-07-19T01:47:32.126Z,2.07
2018-07-19T01:50:02.842Z,1.30
2018-07-19T01:52:33.388Z,1.53
2018-07-19T01:55:04.062Z,1.50
2018-07-19T01:57:36.669Z,1.63
2018-07-19T02:00:07.664Z,2.10
2018-07-19T02:02:38.224Z,2.03
2018-07-19T02:05:11.293Z,1.70
2018-07-19T02:07:45.311Z,1.43
2018-07-19T02:13:01.750Z,1.47
2018-07-19T02:15:33.890Z,1.40
2018-07-19T02:18:04.325Z,1.60
2018-07-19T02:20:34.998Z,1.80
2018-07-19T02:23:06.641Z,1.57
2018-07-19T02:25:42.506Z,1.30
2018-07-19T02:28:13.777Z,2.00
2018-07-19T02:30:45.671Z,1.70
2018-07-19T02:33:18.604Z,1.70
2018-07-19T02:35:50.200Z,1.90
2018-07-19T02:38:20.648Z,2.13
2018-07-19T02:40:51.674Z,1.73
2018-07-19T02:43:22.420Z,2.43
2018-07-19T02:45:52.829Z,1.67
2018-07-19T02:48:23.433Z,1.80
2018-07-19T02:50:53.970Z,1.53
2018-07-19T02:53:24.708Z,1.80
2018-07-19T02:55:55.135Z,1.47
2018-07-19T02:58:25.878Z,1.93
2018-07-19T03:00:56.428Z,1.77
2018-07-19T03:03:26.939Z,1.90
2018-07-19T03:05:57.439Z,1.90
2018-07-19T03:08:28.185Z,1.80
2018-07-19T03:10:58.737Z,1.87
2018-07-19T03:13:30.303Z,2.13
2018-07-19T03:16:00.818Z,1.70
2018-07-19T03:18:31.935Z,2.00
2018-07-19T03:21:02.994Z,1.67
2018-07-19T03:23:42.988Z,2.07
2018-07-19T03:26:17.054Z,1.60
2018-07-19T03:28:52.769Z,2.00
2018-07-19T03:31:26.736Z,2.30
2018-07-19T03:33:57.354Z,1.67
2018-07-19T03:36:27.995Z,1.93
2018-07-19T03:38:58.512Z,1.90
2018-07-19T03:41:29.121Z,2.00
2018-07-19T03:43:59.578Z,1.83
2018-07-19T03:46:30.097Z,1.80
2018-07-19T03:49:00.700Z,1.87
2018-07-19T03:51:31.248Z,1.90
2018-07-19T03:54:01.901Z,1.87
2018-07-19T03:56:32.424Z,2.10
2018-07-19T03:59:02.979Z,1.80
2018-07-19T04:01:33.857Z,2.23
2018-07-19T04:04:04.526Z,1.90
2018-07-19T04:06:35.028Z,1.73
2018-07-19T04:09:07.207Z,2.07
2018-07-19T04:11:37.641Z,1.87
2018-07-19T04:14:08.342Z,2.10
2018-07-19T04:16:38.897Z,2.00
2018-07-19T04:19:23.799Z,2.07
2018-07-19T04:21:54.405Z,1.60
2018-07-19T04:24:24.838Z,1.80
2018-07-19T04:26:55.130Z,1.80
2018-07-19T04:29:25.777Z,2.10
2018-07-19T04:31:56.283Z,1.77
2018-07-19T04:34:26.763Z,1.83
2018-07-19T04:36:57.406Z,1.83
2018-07-19T04:39:28.205Z,1.70
2018-07-19T04:41:58.892Z,1.77
2018-07-19T04:44:29.469Z,2.00
2018-07-19T04:47:00.803Z,2.60
2018-07-19T04:49:33.122Z,2.77
2018-07-19T04:52:03.757Z,2.17
2018-07-19T04:54:34.731Z,2.50
2018-07-19T04:57:05.286Z,2.70
2018-07-19T04:59:36.056Z,2.93
2018-07-19T05:02:06.910Z,2.40
2018-07-19T05:04:37.370Z,2.83
2018-07-19T05:07:08.023Z,3.00
2018-07-19T05:09:39.678Z,2.90
2018-07-19T05:12:10.639Z,2.73
2018-07-19T05:14:41.170Z,2.50
2018-07-19T05:17:12.038Z,2.60
2018-07-19T05:19:42.992Z,3.23
2018-07-19T05:22:13.826Z,3.53
2018-07-19T05:24:44.472Z,3.80
2018-07-19T05:27:15.234Z,3.30
2018-07-19T05:29:45.922Z,4.63
2018-07-19T05:32:16.572Z,4.30
2018-07-19T05:34:47.174Z,3.53
2018-07-19T05:37:18.748Z,3.80
2018-07-19T05:39:49.926Z,3.30
2018-07-19T05:42:20.775Z,3.83
2018-07-19T05:44:55.978Z,4.50
2018-07-19T05:47:26.829Z,2.73
2018-07-19T05:50:01.283Z,3.23
2018-07-19T05:52:37.472Z,3.83
2018-07-19T05:55:09.482Z,3.63
2018-07-19T05:57:39.993Z,4.77
2018-07-19T06:00:10.579Z,3.77
2018-07-19T06:02:40.781Z,3.27
2018-07-19T06:05:11.993Z,3.50
2018-07-19T06:07:47.154Z,4.37
2018-07-19T06:10:17.642Z,4.50
2018-07-19T06:12:48.293Z,3.70
2018-07-19T06:15:20.246Z,3.60
2018-07-19T06:17:51.067Z,3.17
2018-07-19T06:20:21.721Z,3.80
2018-07-19T06:22:52.469Z,3.37
2018-07-19T06:25:27.197Z,3.23
2018-07-19T06:27:57.816Z,3.20
2018-07-19T06:30:28.826Z,3.20
2018-07-19T06:32:59.395Z,3.10
2018-07-19T06:35:30.029Z,3.13
2018-07-19T06:38:00.502Z,2.70
2018-07-19T06:40:37.913Z,4.17
2018-07-19T06:43:15.144Z,3.10
2018-07-19T06:45:47.893Z,3.90
2018-07-19T06:48:19.602Z,3.43
2018-07-19T06:50:50.178Z,2.93
2018-07-19T06:53:21.466Z,3.30
2018-07-19T06:55:52.192Z,2.97
2018-07-19T06:58:22.683Z,3.20
2018-07-19T07:00:53.225Z,4.00
2018-07-19T07:03:24.008Z,3.20
2018-07-19T07:05:54.686Z,3.30
2018-07-19T07:08:25.231Z,4.07
2018-07-19T07:10:55.908Z,3.60
2018-07-19T07:13:26.718Z,4.13
2018-07-19T07:15:57.234Z,3.90
2018-07-19T07:18:27.757Z,3.57
2018-07-19T07:20:58.555Z,5.87
2018-07-19T07:23:29.229Z,3.27
2018-07-19T07:25:59.940Z,3.23
2018-07-19T07:28:30.579Z,3.60
2018-07-19T07:31:01.349Z,3.53
2018-07-19T07:33:32.190Z,9.10
2018-07-19T07:36:02.410Z,268.43
2018-07-19T07:38:32.925Z,209.83
2018-07-19T07:41:03.578Z,105.87
2018-07-19T07:43:34.275Z,110.40
2018-07-19T07:46:05.003Z,67.43
2018-07-19T07:48:35.701Z,57.27
2018-07-19T07:51:07.887Z,82.50
2018-07-19T07:53:38.689Z,57.03
2018-07-19T07:56:09.312Z,53.97
2018-07-19T07:58:39.938Z,52.00
2018-07-19T08:01:10.654Z,42.17
2018-07-19T08:03:41.260Z,39.63
2018-07-19T08:06:11.777Z,36.80
2018-07-19T08:08:43.181Z,29.37
2018-07-19T08:11:14.069Z,29.00
2018-07-19T08:13:44.853Z,26.80
2018-07-19T08:16:31.021Z,24.33
2018-07-19T08:19:02.812Z,19.33
2018-07-19T08:21:34.985Z,18.40
2018-07-19T08:24:06.689Z,16.50
2018-07-19T08:26:37.495Z,20.23
2018-07-19T08:29:08.600Z,14.40
2018-07-19T08:31:39.474Z,11.17
2018-07-19T08:34:11.331Z,12.10
2018-07-19T08:36:46.619Z,9.30
2018-07-19T08:39:17.547Z,9.27
2018-07-19T08:42:02.160Z,7.40
2018-07-19T08:44:45.261Z,7.83
2018-07-19T08:47:16.899Z,7.50
2018-07-19T08:49:48.157Z,7.00
2018-07-19T08:52:19.090Z,6.53
2018-07-19T08:54:49.708Z,6.67
2018-07-19T08:57:20.585Z,6.00
2018-07-19T08:59:51.398Z,5.13
2018-07-19T09:02:22.703Z,4.70
2018-07-19T09:04:53.309Z,4.77
2018-07-19T09:07:23.767Z,4.50
2018-07-19T09:09:54.318Z,4.07
2018-07-19T09:12:24.848Z,3.80
2018-07-19T09:14:55.538Z,4.30
2018-07-19T09:17:26.118Z,4.13
2018-07-19T09:19:56.621Z,3.10
2018-07-19T09:22:27.308Z,3.50
2018-07-19T09:24:58.270Z,2.70
2018-07-19T09:27:33.901Z,2.77
2018-07-19T09:30:06.650Z,2.20
2018-07-19T09:32:37.648Z,2.97
2018-07-19T09:35:08.639Z,2.20
2018-07-19T09:37:39.567Z,2.40
2018-07-19T09:40:10.734Z,2.30
2018-07-19T09:42:41.551Z,2.10
2018-07-19T09:45:12.159Z,2.20
2018-07-19T09:47:42.701Z,2.17
2018-07-19T09:50:13.330Z,1.93
2018-07-19T09:52:43.852Z,1.97
2018-07-19T09:55:14.447Z,2.40
2018-07-19T09:57:45.116Z,1.93
2018-07-19T10:00:20.259Z,1.80
2018-07-19T10:02:50.993Z,2.50
2018-07-19T10:05:21.538Z,1.60
2018-07-19T10:07:52.201Z,2.40
2018-07-19T10:10:23.375Z,2.00
2018-07-19T10:12:55.235Z,1.80
2018-07-19T10:15:27.274Z,1.97
2018-07-19T10:18:06.677Z,2.30
2018-07-19T10:20:49.054Z,2.00
2018-07-19T10:23:21.212Z,1.90
2018-07-19T10:25:51.803Z,2.10
2018-07-19T10:28:22.456Z,2.10
2018-07-19T10:30:53.238Z,2.33
2018-07-19T10:33:23.942Z,1.90
2018-07-19T10:35:54.487Z,2.00
2018-07-19T10:38:25.097Z,1.50
2018-07-19T10:40:55.631Z,1.63
2018-07-19T10:43:26.701Z,2.80
2018-07-19T10:45:57.570Z,2.47
2018-07-19T10:48:27.987Z,2.07
2018-07-19T10:50:58.549Z,2.10
2018-07-19T10:53:29.047Z,15.83
2018-07-19T10:55:59.708Z,68.57
2018-07-19T10:58:30.521Z,43.53
2018-07-19T11:01:01.486Z,18.47
2018-07-19T11:03:32.810Z,4.90
2018-07-19T11:06:04.345Z,139.73
2018-07-19T11:08:37.024Z,22.30
2018-07-19T11:11:12.111Z,28.57
2018-07-19T11:13:43.655Z,16.60
2018-07-19T11:16:14.437Z,220.10
2018-07-19T11:18:46.666Z,307.37
2018-07-19T11:21:17.118Z,235.37
2018-07-19T11:23:49.183Z,162.97
2018-07-19T11:26:20.984Z,90.83
2018-07-19T11:28:53.052Z,63.23
2018-07-19T11:31:25.200Z,45.40
2018-07-19T11:33:56.494Z,33.20
2018-07-19T11:36:29.233Z,38.80
2018-07-19T11:39:00.786Z,31.13
2018-07-19T11:41:33.078Z,22.93
2018-07-19T11:44:04.842Z,15.87
2018-07-19T11:46:35.303Z,15.80
2018-07-19T11:49:06.542Z,16.07
2018-07-19T11:51:40.202Z,13.50
2018-07-19T11:54:14.468Z,17.00
2018-07-19T11:56:46.571Z,13.03
2018-07-19T11:59:22.083Z,11.13
2018-07-19T12:01:53.549Z,12.60
2018-07-19T12:04:25.567Z,9.63
2018-07-19T12:06:56.154Z,7.80
2018-07-19T12:09:26.684Z,9.70
2018-07-19T12:11:57.248Z,8.97
2018-07-19T12:14:27.978Z,7.60
2018-07-19T12:16:58.828Z,7.00
2018-07-19T12:19:29.430Z,7.63
2018-07-19T12:22:00.228Z,24.40
2018-07-19T12:24:31.111Z,28.47
2018-07-19T12:27:01.801Z,29.17
2018-07-19T12:29:32.433Z,27.73
2018-07-19T12:32:02.865Z,16.97
2018-07-19T12:34:34.346Z,15.97
2018-07-19T12:37:05.148Z,14.00
2018-07-19T12:39:35.693Z,13.60
2018-07-19T12:42:06.354Z,13.00
2018-07-19T12:44:37.223Z,11.40
2018-07-19T12:47:07.764Z,10.07
2018-07-19T12:49:38.342Z,10.40
2018-07-19T12:52:09.092Z,10.70
2018-07-19T12:54:39.723Z,9.60
2018-07-19T12:57:09.846Z,8.07
2018-07-19T12:59:40.313Z,5.27
2018-07-19T13:02:11.111Z,5.17
2018-07-19T13:04:41.729Z,4.63
2018-07-19T13:07:12.299Z,4.67
2018-07-19T13:09:42.915Z,3.27
2018-07-19T13:12:14.986Z,3.20
2018-07-19T13:14:45.609Z,4.03
2018-07-19T13:17:16.212Z,3.17
2018-07-19T13:19:47.472Z,2.27
2018-07-19T13:22:17.987Z,3.40
2018-07-19T13:24:48.657Z,2.30
2018-07-19T13:27:19.292Z,2.40
2018-07-19T13:29:49.999Z,2.30
2018-07-19T13:32:21.886Z,2.17
2018-07-19T13:34:52.626Z,2.00
2018-07-19T13:37:23.486Z,2.23
2018-07-19T13:40:00.104Z,1.57
2018-07-19T13:42:31.439Z,2.23
2018-07-19T13:45:04.540Z,1.83
2018-07-19T13:47:35.738Z,1.87
2018-07-19T13:50:07.535Z,1.80
2018-07-19T13:52:48.654Z,2.50
2018-07-19T13:55:20.019Z,1.77
2018-07-19T13:57:51.430Z,1.40
2018-07-19T14:00:24.134Z,1.40
2018-07-19T14:02:55.925Z,1.97
2018-07-19T14:05:31.140Z,1.43
2018-07-19T14:08:01.825Z,1.70
2018-07-19T14:10:35.013Z,2.00
2018-07-19T14:13:06.752Z,1.60
2018-07-19T14:15:39.559Z,1.50
2018-07-19T14:18:10.905Z,1.93
2018-07-19T14:20:42.901Z,1.80
2018-07-19T14:23:16.187Z,1.43
2018-07-19T14:25:47.938Z,1.60
2018-07-19T14:28:18.605Z,1.53
2018-07-19T14:30:50.874Z,1.47
2018-07-19T14:33:22.530Z,1.20
2018-07-19T14:35:58.026Z,1.43
2018-07-19T14:38:30.610Z,1.40
2018-07-19T14:41:01.051Z,1.60
2018-07-19T14:43:33.659Z,1.60
2018-07-19T14:46:05.799Z,1.27
2018-07-19T14:48:38.814Z,1.00
2018-07-19T14:51:10.970Z,1.20
2018-07-19T14:53:43.001Z,1.20
2018-07-19T14:56:14.244Z,1.20
2018-07-19T14:58:45.623Z,1.27
2018-07-19T15:01:16.161Z,1.50
2018-07-19T15:03:50.941Z,1.20
2018-07-19T15:06:22.372Z,1.30
2018-07-19T15:08:54.029Z,0.93
2018-07-19T15:11:26.326Z,1.00
2018-07-19T15:13:58.207Z,1.20
2018-07-19T15:16:29.656Z,84.07
2018-07-19T15:19:02.733Z,60.77
2018-07-19T15:21:34.019Z,11.93
2018-07-19T15:24:43.863Z,8.33
2018-07-19T15:27:15.387Z,2.23
2018-07-19T15:29:45.835Z,1.50
2018-07-19T15:32:18.217Z,1.50
2018-07-19T15:34:52.882Z,1.00
2018-07-19T15:49:34.390Z,1.40
2018-07-19T15:52:06.813Z,1.00
2018-07-19T15:54:37.507Z,0.87
2018-07-19T15:57:08.263Z,1.30
2018-07-19T15:59:40.609Z,1.30
2018-07-19T16:02:13.099Z,1.00
2018-07-19T16:04:43.902Z,1.40
2018-07-19T16:07:15.602Z,1.10
2018-07-19T16:09:46.608Z,0.97
2018-07-19T16:12:17.313Z,1.30
2018-07-19T16:14:49.009Z,0.83
2018-07-19T16:17:22.685Z,1.20
2018-07-19T16:19:54.092Z,1.03
2018-07-19T16:22:24.955Z,0.70
2018-07-19T16:24:55.554Z,1.33
2018-07-19T16:27:27.960Z,0.90
2018-07-19T16:30:02.184Z,1.23
2018-07-19T16:32:34.801Z,0.97
2018-07-19T16:35:09.175Z,1.30
2018-07-19T16:37:41.920Z,0.97
2018-07-19T16:40:12.638Z,1.07
2018-07-19T16:42:45.236Z,1.17
2018-07-19T16:45:16.570Z,1.53
2018-07-19T16:47:48.724Z,1.30
2018-07-19T16:50:19.282Z,0.90
2018-07-19T16:52:50.075Z,1.40
2018-07-19T16:55:21.008Z,1.10
2018-07-19T16:57:51.510Z,1.07
2018-07-19T17:00:22.025Z,1.20
2018-07-19T17:02:52.497Z,1.00
2018-07-19T17:05:27.303Z,1.33
2018-07-19T17:07:59.154Z,9.20
2018-07-19T17:10:31.408Z,13.80
2018-07-19T17:13:02.952Z,5.03
2018-07-19T17:15:34.166Z,1.77
2018-07-19T17:18:06.103Z,1.30
2018-07-19T17:20:36.729Z,1.07
2018-07-19T17:23:10.624Z,38.70
2018-07-19T17:25:44.221Z,22.63
2018-07-19T17:28:17.508Z,13.43
2018-07-19T17:30:55.447Z,11.87
2018-07-19T17:33:36.833Z,2.47
2018-07-19T17:36:13.491Z,1.63
2018-07-19T17:38:53.662Z,0.90
2018-07-19T17:41:27.521Z,1.03
2018-07-19T17:44:00.163Z,1.07
2018-07-19T17:46:34.462Z,1.10
2018-07-19T17:49:06.285Z,0.93
2018-07-19T17:51:43.202Z,0.90
2018-07-19T17:54:16.520Z,1.67
2018-07-19T17:56:53.955Z,1.20
2018-07-19T17:59:28.623Z,1.20
2018-07-19T18:02:01.051Z,1.40
2018-07-19T18:04:32.775Z,18.50
2018-07-19T18:07:07.533Z,3.70
2018-07-19T18:09:43.377Z,9.30
2018-07-19T18:12:15.791Z,3.40
2018-07-19T18:14:49.616Z,2.87
2018-07-19T18:17:26.226Z,2.33
2018-07-19T18:20:03.179Z,2.03
2018-07-19T18:22:36.858Z,1.67
2018-07-19T18:25:13.218Z,1.90
2018-07-19T18:27:55.015Z,1.90
2018-07-19T18:30:29.000Z,1.30
2018-07-19T18:33:09.588Z,1.40
2018-07-19T18:35:43.456Z,1.57
2018-07-19T18:38:17.833Z,1.20
2018-07-19T18:40:53.713Z,1.00
2018-07-19T18:43:39.158Z,1.80
2018-07-19T18:46:16.436Z,1.00
2018-07-19T18:49:06.205Z,0.80
2018-07-19T18:54:37.085Z,1.10
2018-07-19T18:57:12.089Z,0.67
2018-07-19T19:00:09.318Z,1.10
2018-07-19T19:02:41.772Z,0.80
2018-07-19T19:05:17.375Z,1.17
2018-07-19T19:07:53.798Z,0.80
2018-07-19T19:10:34.013Z,0.80
2018-07-19T19:13:08.748Z,0.80
2018-07-19T19:15:58.803Z,0.80
2018-07-19T19:18:32.487Z,0.87
2018-07-19T19:21:05.799Z,1.00
2018-07-19T19:23:40.474Z,0.97
2018-07-19T19:29:16.733Z,1.00
2018-07-19T19:31:52.405Z,0.73
2018-07-19T19:34:37.023Z,1.00
2018-07-19T19:37:10.366Z,1.30
2018-07-19T19:39:48.511Z,0.80
2018-07-19T19:42:54.698Z,0.83
2018-07-19T19:45:27.118Z,0.90
2018-07-19T19:50:58.363Z,1.20
2018-07-19T19:53:29.112Z,0.87
2018-07-19T19:55:59.655Z,0.80
2018-07-19T19:58:30.241Z,1.00
2018-07-19T20:01:01.432Z,0.87
2018-07-19T20:03:31.905Z,0.83
2018-07-19T20:06:02.651Z,1.00
2018-07-19T20:08:33.323Z,0.87
2018-07-19T20:11:03.954Z,1.20
2018-07-19T20:13:34.609Z,0.93
2018-07-19T20:16:05.398Z,0.97
2018-07-19T20:18:36.150Z,9.23
2018-07-19T20:21:07.041Z,42.70
2018-07-19T20:23:37.738Z,1.83
2018-07-19T20:26:08.559Z,1.20
2018-07-19T20:28:39.216Z,1.87
2018-07-19T20:31:09.841Z,0.90
2018-07-19T20:33:40.484Z,1.00
2018-07-19T20:36:11.076Z,1.40
2018-07-19T20:38:41.670Z,1.43
2018-07-19T20:41:12.080Z,1.20
2018-07-19T20:43:42.915Z,1.30
2018-07-19T20:46:13.326Z,1.80
2018-07-19T20:48:43.865Z,1.53
2018-07-19T20:51:14.415Z,3.47
2018-07-19T20:53:45.117Z,4.00
2018-07-19T20:56:15.683Z,1.60
2018-07-19T20:58:46.269Z,11.53
2018-07-19T21:01:16.722Z,6.10
2018-07-19T21:03:47.430Z,4.10
2018-07-19T21:06:17.965Z,3.00
2018-07-19T21:08:48.657Z,2.67
2018-07-19T21:11:19.344Z,3.00
2018-07-19T21:13:49.760Z,2.53
2018-07-19T21:16:20.307Z,2.43
2018-07-19T21:18:51.000Z,2.70
2018-07-19T21:21:21.787Z,1.70
2018-07-19T21:23:52.311Z,2.57
2018-07-19T21:26:23.653Z,2.33
2018-07-19T21:28:55.501Z,1.70
2018-07-19T21:31:26.018Z,1.70
2018-07-19T21:33:56.696Z,1.63
2018-07-19T21:36:27.348Z,1.97
2018-07-19T21:38:58.130Z,1.60
2018-07-19T21:41:28.671Z,1.33
2018-07-19T21:43:59.361Z,2.17
2018-07-19T21:46:30.180Z,1.80
2018-07-19T21:49:02.095Z,1.57
2018-07-19T21:51:32.646Z,1.63
2018-07-19T21:54:03.521Z,2.10
2018-07-19T21:56:35.365Z,1.20
2018-07-19T21:59:05.986Z,1.10
2018-07-19T22:01:45.877Z,1.50
2018-07-19T22:04:20.078Z,1.13
2018-07-19T22:06:50.967Z,1.20
2018-07-19T22:09:23.088Z,1.33
2018-07-19T22:11:53.657Z,1.50
2018-07-19T22:14:24.235Z,1.63
2018-07-19T22:16:54.978Z,1.33
2018-07-19T22:19:25.446Z,1.03
2018-07-19T22:21:56.033Z,1.33
2018-07-19T22:24:26.560Z,1.20
2018-07-19T22:29:58.090Z,1.30
2018-07-19T22:32:28.704Z,1.07
2018-07-19T22:34:59.179Z,0.93
2018-07-19T22:37:30.075Z,1.50
2018-07-19T22:40:00.814Z,1.07
2018-07-19T22:42:31.435Z,1.00
2018-07-19T22:45:01.866Z,1.10
2018-07-19T22:47:32.407Z,1.57
2018-07-19T22:50:03.075Z,1.30
2018-07-19T22:52:33.989Z,1.00
2018-07-19T22:55:05.704Z,1.23
2018-07-19T22:57:44.918Z,1.13
2018-07-19T23:00:21.533Z,1.00
2018-07-19T23:02:56.490Z,1.30
2018-07-19T23:05:27.155Z,1.70
2018-07-19T23:07:57.770Z,0.90
2018-07-19T23:10:30.404Z,1.90
2018-07-19T23:13:14.419Z,1.37
2018-07-19T23:15:45.993Z,1.17
2018-07-19T23:18:17.777Z,1.30
2018-07-19T23:20:49.858Z,1.20
2018-07-19T23:23:22.470Z,1.30
2018-07-19T23:26:01.122Z,1.33
2018-07-19T23:28:38.909Z,1.60
2018-07-19T23:31:12.431Z,1.10
2018-07-19T23:33:56.012Z,1.60
2018-07-19T23:36:34.525Z,1.40
2018-07-19T23:39:38.346Z,1.20
2018-07-19T23:42:19.979Z,1.30
2018-07-19T23:45:04.263Z,1.50
2018-07-19T23:47:40.173Z,1.20
2018-07-19T23:50:18.694Z,1.40
2018-07-19T23:55:34.677Z,1.20
2018-07-19T23:58:08.079Z,1.43
